Macy, Nebraska
Current Conditions -  °F | °C
As of 11:52 AM on Monday 24 Nov 2014 (Local Time) from KSUX Reporting Station
Overcast Overcast  
Wind Chill: 11°   Ceiling: 2100
Heat Index: 25°   Visibility: 10mi
Dew Point: 16°   Wind: 20mph
Humidity: 69%   Direction: 310°NW
Pressure: 29.71"   Gusts: 37mph
Location:  42.11°N, 96.36°W
Report Text: KSUX 241752Z 31017G32KT 10SM OVC021 M04/M09 A2971 RMK AO2 PK WND 31034/1657 SNB1654E13 SLP075 P0000 60000 T10391089 11033 21044 51017
Loading
Personal Weather Stations






























Interactive Weather Map New forecast layout! Learn more

10-Day Weather Forecast

Advertisements
Track Severe Weather on mobile